createdAt,value
2023-03-04T00:00:47.645Z,20.35
2023-03-04T00:02:50.796Z,19.90
2023-03-04T00:04:52.465Z,20.33
2023-03-04T00:06:55.306Z,18.88
2023-03-04T00:08:57.058Z,23.55
2023-03-04T00:10:58.818Z,22.08
2023-03-04T00:13:00.392Z,23.15
2023-03-04T00:15:02.071Z,22.45
2023-03-04T00:17:03.737Z,22.60
2023-03-04T00:19:06.618Z,21.13
2023-03-04T00:21:08.314Z,23.60
2023-03-04T00:23:10.022Z,23.90
2023-03-04T00:25:11.569Z,26.38
2023-03-04T00:27:13.146Z,27.52
2023-03-04T00:29:14.782Z,27.48
2023-03-04T00:31:16.531Z,27.55
2023-03-04T00:33:18.329Z,26.42
2023-03-04T00:35:21.399Z,26.48
2023-03-04T00:37:23.091Z,27.98
2023-03-04T00:39:24.847Z,26.10
2023-03-04T00:41:26.441Z,27.73
2023-03-04T00:43:28.049Z,26.75
2023-03-04T00:45:29.815Z,27.98
2023-03-04T00:47:31.399Z,29.95
2023-03-04T00:49:33.131Z,27.73
2023-03-04T00:51:36.303Z,27.55
2023-03-04T00:53:37.877Z,28.60
2023-03-04T00:55:39.535Z,26.23
2023-03-04T00:57:41.095Z,29.50
2023-03-04T00:59:42.892Z,27.73
2023-03-04T01:01:46.478Z,30.02
2023-03-04T01:03:48.122Z,27.17
2023-03-04T01:05:49.778Z,28.02
2023-03-04T01:07:52.812Z,27.42
2023-03-04T01:09:54.521Z,27.83
2023-03-04T01:11:56.198Z,27.90
2023-03-04T01:13:57.785Z,25.40
2023-03-04T01:15:59.471Z,26.98
2023-03-04T01:18:01.289Z,29.95
2023-03-04T01:20:04.019Z,26.38
2023-03-04T01:22:05.668Z,31.02
2023-03-04T01:24:09.036Z,27.40
2023-03-04T01:26:10.604Z,27.30
2023-03-04T01:28:12.156Z,27.02
2023-03-04T01:30:13.954Z,30.85
2023-03-04T01:32:15.645Z,30.80
2023-03-04T01:34:17.192Z,28.98
2023-03-04T01:36:18.769Z,29.50
2023-03-04T01:38:20.468Z,29.70
2023-03-04T01:40:23.680Z,29.83
2023-03-04T01:42:27.585Z,27.70
2023-03-04T01:44:29.313Z,29.00
2023-03-04T01:46:32.011Z,30.30
2023-03-04T01:48:37.112Z,28.95
2023-03-04T01:50:38.942Z,28.58
2023-03-04T01:52:41.084Z,27.27
2023-03-04T01:54:42.785Z,28.85
2023-03-04T01:56:47.596Z,27.40
2023-03-04T01:59:07.485Z,28.17
2023-03-04T02:01:10.426Z,28.60
2023-03-04T02:05:17.445Z,27.58
2023-03-04T02:07:19.060Z,28.33
2023-03-04T02:09:21.418Z,31.48
2023-03-04T02:11:23.284Z,30.02
2023-03-04T02:13:26.499Z,30.63
2023-03-04T02:15:29.131Z,31.00
2023-03-04T02:17:35.208Z,29.42
2023-03-04T02:19:47.821Z,29.98
2023-03-04T02:21:49.707Z,29.58
2023-03-04T02:23:59.552Z,28.70
2023-03-04T02:26:20.818Z,30.15
2023-03-04T02:28:22.460Z,28.58
2023-03-04T02:30:25.130Z,30.67
2023-03-04T02:32:26.915Z,30.67
2023-03-04T02:34:31.178Z,26.95
2023-03-04T02:36:34.746Z,29.58
2023-03-04T02:38:36.367Z,29.65
2023-03-04T02:40:41.458Z,30.48
2023-03-04T02:42:45.291Z,29.60
2023-03-04T02:44:47.774Z,30.33
2023-03-04T02:46:50.710Z,29.73
2023-03-04T02:48:52.756Z,31.60
2023-03-04T02:50:55.231Z,30.42
2023-03-04T02:52:56.844Z,29.27
2023-03-04T02:54:58.432Z,31.10
2023-03-04T02:57:02.326Z,27.85
2023-03-04T02:59:05.241Z,31.13
2023-03-04T03:01:06.824Z,31.45
2023-03-04T03:03:09.186Z,29.33
2023-03-04T03:05:12.761Z,30.27
2023-03-04T03:07:14.360Z,30.63
2023-03-04T03:09:16.538Z,30.10
2023-03-04T03:11:18.121Z,32.25
2023-03-04T03:13:19.751Z,29.52
2023-03-04T03:15:22.779Z,28.75
2023-03-04T03:17:24.400Z,30.85
2023-03-04T03:19:25.992Z,29.42
2023-03-04T03:21:27.735Z,34.20
2023-03-04T03:23:29.264Z,31.13
2023-03-04T03:25:30.948Z,29.88
2023-03-04T03:27:32.589Z,30.08
2023-03-04T03:29:34.208Z,29.25
2023-03-04T03:31:37.155Z,31.13
2023-03-04T03:33:38.860Z,31.30
2023-03-04T03:35:40.453Z,31.42
2023-03-04T03:37:41.986Z,31.42
2023-03-04T03:39:43.753Z,31.63
2023-03-04T03:41:45.356Z,32.10
2023-03-04T03:43:46.859Z,33.35
2023-03-04T03:45:48.469Z,32.33
2023-03-04T03:47:51.441Z,28.88
2023-03-04T03:49:53.008Z,32.67
2023-03-04T03:51:54.646Z,32.30
2023-03-04T03:53:56.197Z,29.98
2023-03-04T03:55:57.777Z,31.10
2023-03-04T03:57:59.376Z,32.00
2023-03-04T04:00:01.416Z,29.85
2023-03-04T04:02:03.237Z,30.90
2023-03-04T04:04:06.362Z,31.25
2023-03-04T04:06:08.118Z,31.63
2023-03-04T04:08:12.718Z,30.30
2023-03-04T04:10:14.328Z,30.75
2023-03-04T04:12:16.848Z,28.00
2023-03-04T04:14:18.390Z,29.60
2023-03-04T04:16:19.956Z,32.33
2023-03-04T04:18:21.728Z,29.90
2023-03-04T04:20:26.316Z,31.40
2023-03-04T04:22:28.193Z,31.95
2023-03-04T04:24:30.045Z,32.03
2023-03-04T04:26:31.634Z,30.25
2023-03-04T04:28:33.548Z,30.42
2023-03-04T04:30:35.421Z,29.95
2023-03-04T04:32:37.004Z,31.38
2023-03-04T04:34:38.719Z,32.22
2023-03-04T04:36:41.588Z,27.95
2023-03-04T04:38:43.418Z,31.52
2023-03-04T04:40:44.995Z,28.50
2023-03-04T04:42:46.546Z,30.25
2023-03-04T04:44:48.140Z,29.83
2023-03-04T04:46:49.851Z,29.50
2023-03-04T04:48:51.431Z,30.80
2023-03-04T04:51:02.051Z,30.90
2023-03-04T04:53:05.152Z,28.92
2023-03-04T04:55:07.320Z,29.63
2023-03-04T04:57:08.933Z,29.40
2023-03-04T04:59:10.698Z,29.77
2023-03-04T05:01:12.904Z,29.55
2023-03-04T05:03:16.293Z,29.90
2023-03-04T05:05:19.327Z,31.80
2023-03-04T05:07:21.063Z,28.52
2023-03-04T05:09:24.013Z,31.20
2023-03-04T05:11:25.699Z,29.15
2023-03-04T05:13:27.850Z,33.33
2023-03-04T05:15:29.454Z,31.00
2023-03-04T05:17:31.067Z,30.00
2023-03-04T05:19:32.602Z,32.10
2023-03-04T05:21:34.317Z,34.03
2023-03-04T05:23:38.998Z,32.58
2023-03-04T05:25:41.895Z,32.13
2023-03-04T05:27:43.901Z,30.90
2023-03-04T05:29:45.474Z,32.45
2023-03-04T05:31:47.097Z,31.73
2023-03-04T05:33:48.741Z,31.60
2023-03-04T05:35:50.932Z,31.58
2023-03-04T05:37:52.612Z,33.03
2023-03-04T05:39:54.369Z,33.60
2023-03-04T05:41:57.337Z,35.13
2023-03-04T05:43:58.997Z,32.95
2023-03-04T05:46:00.563Z,35.53
2023-03-04T05:48:02.170Z,34.25
2023-03-04T05:50:03.943Z,32.53
2023-03-04T05:52:05.508Z,34.10
2023-03-04T05:54:07.175Z,35.47
2023-03-04T05:56:09.949Z,34.70
2023-03-04T05:58:12.982Z,35.38
2023-03-04T06:00:16.034Z,34.78
2023-03-04T06:02:17.573Z,36.50
2023-03-04T06:04:19.202Z,34.70
2023-03-04T06:06:20.926Z,34.40
2023-03-04T06:08:22.674Z,34.38
2023-03-04T06:10:24.229Z,33.90
2023-03-04T06:12:26.110Z,37.05
2023-03-04T06:14:29.023Z,35.03
2023-03-04T06:16:30.694Z,33.60
2023-03-04T06:18:32.381Z,32.45
2023-03-04T06:20:33.975Z,34.90
2023-03-04T06:22:35.589Z,34.45
2023-03-04T06:24:37.616Z,33.75
2023-03-04T06:26:39.267Z,31.90
2023-03-04T06:28:40.951Z,34.35
2023-03-04T06:30:43.939Z,33.33
2023-03-04T06:32:45.674Z,33.08
2023-03-04T06:34:47.323Z,30.92
2023-03-04T06:36:48.929Z,33.05
2023-03-04T06:38:50.483Z,30.88
2023-03-04T06:40:52.416Z,36.03
2023-03-04T06:42:54.176Z,35.35
2023-03-04T06:44:55.831Z,31.80
2023-03-04T06:46:58.835Z,30.45
2023-03-04T06:49:00.580Z,31.63
2023-03-04T06:51:05.876Z,30.08
2023-03-04T06:53:07.474Z,32.50
2023-03-04T06:55:09.887Z,29.75
2023-03-04T06:57:11.612Z,29.90
2023-03-04T06:59:13.374Z,30.17
2023-03-04T07:01:17.238Z,28.30
2023-03-04T07:03:20.198Z,33.35
2023-03-04T07:05:21.791Z,29.55
2023-03-04T07:07:23.425Z,31.25
2023-03-04T07:09:25.119Z,30.70
2023-03-04T07:11:26.873Z,31.98
2023-03-04T07:13:28.433Z,32.60
2023-03-04T07:15:30.201Z,31.73
2023-03-04T07:17:31.771Z,32.95
2023-03-04T07:19:34.731Z,31.98
2023-03-04T07:21:36.317Z,31.88
2023-03-04T07:23:37.923Z,31.42
2023-03-04T07:25:39.520Z,32.05
2023-03-04T07:27:41.219Z,32.90
2023-03-04T07:29:42.943Z,33.00
2023-03-04T07:31:44.592Z,31.65
2023-03-04T07:33:46.403Z,29.90
2023-03-04T07:35:49.295Z,32.78
2023-03-04T07:37:51.012Z,33.28
2023-03-04T07:39:52.585Z,32.40
2023-03-04T07:41:54.068Z,32.00
2023-03-04T07:43:56.942Z,35.75
2023-03-04T07:46:00.464Z,38.25
2023-03-04T07:48:02.173Z,32.47
2023-03-04T07:50:04.530Z,31.45
2023-03-04T07:52:07.572Z,32.65
2023-03-04T07:54:09.746Z,33.45
2023-03-04T07:56:13.321Z,33.75
2023-03-04T07:58:14.888Z,33.00
2023-03-04T08:00:17.511Z,33.63
2023-03-04T08:02:19.257Z,32.28
2023-03-04T08:04:20.885Z,33.25
2023-03-04T08:06:23.044Z,35.22
2023-03-04T08:08:26.028Z,33.28
2023-03-04T08:10:27.722Z,34.75
2023-03-04T08:12:29.352Z,35.90
2023-03-04T08:14:30.962Z,31.65
2023-03-04T08:16:32.981Z,31.30
2023-03-04T08:18:34.629Z,30.23
2023-03-04T08:20:36.300Z,35.70
2023-03-04T08:22:39.934Z,31.80
2023-03-04T08:24:42.847Z,34.15
2023-03-04T08:26:46.692Z,33.25
2023-03-04T08:28:48.418Z,32.88
2023-03-04T08:30:53.644Z,35.92
2023-03-04T08:32:55.187Z,33.28
2023-03-04T08:34:56.727Z,35.60
2023-03-04T08:36:58.215Z,34.80
2023-03-04T08:38:59.778Z,35.90
2023-03-04T08:41:03.081Z,39.00
2023-03-04T08:43:04.655Z,35.53
2023-03-04T08:45:07.249Z,38.60
2023-03-04T08:47:08.784Z,38.38
2023-03-04T08:49:11.938Z,34.97
2023-03-04T08:51:14.739Z,34.95
2023-03-04T08:53:17.825Z,38.80
2023-03-04T08:55:19.463Z,41.50
2023-03-04T08:57:22.538Z,35.38
2023-03-04T08:59:24.473Z,36.03
2023-03-04T09:01:26.044Z,37.38
2023-03-04T09:03:27.877Z,38.00
2023-03-04T09:05:29.762Z,39.22
2023-03-04T09:07:31.346Z,36.00
2023-03-04T09:09:33.046Z,36.88
2023-03-04T09:11:35.027Z,36.17
2023-03-04T09:13:38.015Z,37.80
2023-03-04T09:15:44.473Z,38.10
2023-03-04T09:17:46.170Z,38.92
2023-03-04T09:19:47.766Z,42.35
2023-03-04T09:21:49.366Z,40.22
2023-03-04T09:23:50.874Z,38.67
2023-03-04T09:25:52.547Z,40.50
2023-03-04T09:27:54.255Z,41.80
2023-03-04T09:29:57.201Z,41.17
2023-03-04T09:31:58.747Z,39.42
2023-03-04T09:34:00.681Z,45.83
2023-03-04T09:36:02.232Z,42.00
2023-03-04T09:38:03.962Z,39.47
2023-03-04T09:40:07.511Z,38.55
2023-03-04T09:42:15.075Z,39.25
2023-03-04T09:44:23.216Z,41.20
2023-03-04T09:46:32.621Z,40.33
2023-03-04T09:48:40.215Z,36.65
2023-03-04T09:50:51.655Z,38.50
2023-03-04T09:53:04.979Z,38.42
2023-03-04T09:55:20.463Z,38.25
2023-03-04T09:57:28.184Z,41.08
2023-03-04T09:59:35.460Z,37.60
2023-03-04T10:01:45.825Z,41.22
2023-03-04T10:03:51.725Z,38.80
2023-03-04T10:05:56.423Z,39.08
2023-03-04T10:08:00.666Z,39.63
2023-03-04T10:10:04.754Z,42.75
2023-03-04T10:12:11.992Z,37.33
2023-03-04T10:14:31.440Z,41.95
2023-03-04T10:16:39.907Z,35.33
2023-03-04T10:18:50.430Z,41.35
2023-03-04T10:20:56.471Z,42.72
2023-03-04T10:23:05.775Z,41.45
2023-03-04T10:25:19.595Z,36.47
2023-03-04T10:27:21.195Z,38.03
2023-03-04T10:29:24.613Z,37.08
2023-03-04T10:31:32.604Z,38.95
2023-03-04T10:33:36.510Z,39.95
2023-03-04T10:35:41.506Z,40.50
2023-03-04T10:37:45.939Z,38.38
2023-03-04T10:39:49.750Z,38.05
2023-03-04T10:41:59.578Z,40.20
2023-03-04T10:44:03.979Z,41.17
2023-03-04T10:46:05.630Z,37.67
2023-03-04T10:48:19.354Z,41.30
2023-03-04T10:50:26.767Z,39.67
2023-03-04T10:52:32.050Z,39.80
2023-03-04T10:54:40.816Z,38.08
2023-03-04T10:56:52.363Z,38.53
2023-03-04T10:58:53.901Z,40.60
2023-03-04T11:01:05.742Z,40.40
2023-03-04T11:03:23.784Z,35.25
2023-03-04T11:05:26.013Z,36.38
2023-03-04T11:07:27.784Z,36.97
2023-03-04T11:09:31.589Z,40.92
2023-03-04T11:11:41.692Z,35.72
2023-03-04T11:13:50.758Z,36.00
2023-03-04T11:15:56.258Z,37.47
2023-03-04T11:18:03.172Z,38.20
2023-03-04T11:20:14.400Z,34.65
2023-03-04T11:22:18.196Z,35.20
2023-03-04T11:24:28.841Z,36.10
2023-03-04T11:26:36.356Z,35.97
2023-03-04T11:28:45.073Z,38.40
2023-03-04T11:30:50.524Z,33.15
2023-03-04T11:32:55.780Z,33.15
2023-03-04T11:35:01.437Z,34.47
2023-03-04T11:37:08.469Z,34.20
2023-03-04T11:39:20.339Z,33.40
2023-03-04T11:41:30.515Z,35.88
2023-03-04T11:43:36.493Z,31.90
2023-03-04T11:46:02.273Z,29.52
2023-03-04T11:48:13.072Z,31.27
2023-03-04T11:50:29.843Z,27.42
2023-03-04T11:52:51.943Z,28.85
2023-03-04T11:55:06.124Z,28.98
2023-03-04T11:57:12.910Z,33.10
2023-03-04T11:59:29.095Z,29.15
2023-03-04T12:01:42.463Z,27.25
2023-03-04T12:04:00.099Z,29.02
2023-03-04T12:06:10.361Z,30.52
2023-03-04T12:08:28.132Z,28.85
2023-03-04T12:10:38.062Z,28.55
2023-03-04T12:12:54.646Z,28.67
2023-03-04T12:15:07.130Z,27.55
2023-03-04T12:17:34.782Z,26.00
2023-03-04T12:19:50.850Z,26.55
2023-03-04T12:22:19.326Z,28.25
2023-03-04T12:24:57.467Z,24.38
2023-03-04T12:27:09.076Z,23.33
2023-03-04T12:29:20.222Z,22.30
2023-03-04T12:31:34.103Z,22.77
2023-03-04T12:33:48.897Z,22.40
2023-03-04T12:35:56.554Z,22.52
2023-03-04T12:38:19.515Z,20.45
2023-03-04T12:40:34.944Z,20.42
2023-03-04T12:42:46.059Z,22.02
2023-03-04T12:44:58.393Z,24.02
2023-03-04T12:47:17.879Z,21.83
2023-03-04T12:49:37.510Z,21.60
2023-03-04T12:51:49.933Z,21.77
2023-03-04T12:54:01.229Z,28.23
2023-03-04T12:56:10.206Z,36.92
2023-03-04T12:58:16.488Z,31.15
2023-03-04T13:00:30.338Z,23.50
2023-03-04T13:02:52.757Z,22.40
2023-03-04T13:05:03.406Z,24.40
2023-03-04T13:07:16.475Z,22.88
2023-03-04T13:09:24.403Z,23.80
2023-03-04T13:11:54.752Z,22.63
2023-03-04T13:14:02.226Z,21.77
2023-03-04T13:16:06.075Z,23.00
2023-03-04T13:18:34.527Z,22.17
2023-03-04T13:20:39.340Z,21.83
2023-03-04T13:22:53.496Z,21.95
2023-03-04T13:24:57.363Z,21.30
2023-03-04T13:26:59.369Z,21.27
2023-03-04T13:29:32.240Z,20.58
2023-03-04T13:32:01.278Z,21.33
2023-03-04T13:34:04.890Z,22.25
2023-03-04T13:36:26.224Z,24.98
2023-03-04T13:38:33.692Z,23.52
2023-03-04T13:40:36.678Z,24.20
2023-03-04T13:42:40.390Z,22.08
2023-03-04T13:45:00.113Z,23.80
2023-03-04T13:47:09.129Z,24.38
2023-03-04T13:49:22.380Z,24.80
2023-03-04T13:51:29.936Z,26.00
2023-03-04T13:53:43.818Z,25.08
2023-03-04T13:56:12.101Z,24.42
2023-03-04T13:58:20.472Z,26.30
2023-03-04T14:00:22.665Z,24.45
2023-03-04T14:02:25.628Z,25.17
2023-03-04T14:04:32.827Z,23.80
2023-03-04T14:06:34.448Z,23.77
2023-03-04T14:08:36.178Z,22.52
2023-03-04T14:10:37.705Z,25.30
2023-03-04T14:12:44.654Z,27.10
2023-03-04T14:14:50.500Z,22.25
2023-03-04T14:16:56.094Z,21.40
2023-03-04T14:18:59.580Z,21.75
2023-03-04T14:21:02.769Z,19.52
2023-03-04T14:23:22.627Z,19.90
2023-03-04T14:25:26.632Z,19.70
2023-03-04T14:27:29.210Z,20.60
2023-03-04T14:29:31.507Z,19.63
2023-03-04T14:31:35.881Z,22.27
2023-03-04T14:33:40.101Z,21.73
2023-03-04T14:35:47.206Z,22.58
2023-03-04T14:37:57.353Z,20.95
2023-03-04T14:40:00.298Z,21.05
2023-03-04T14:42:08.852Z,21.73
2023-03-04T14:44:19.189Z,20.63
2023-03-04T14:46:22.193Z,20.92
2023-03-04T14:48:27.876Z,21.58
2023-03-04T14:50:37.352Z,22.42
2023-03-04T14:52:41.790Z,20.08
2023-03-04T14:55:00.846Z,24.42
2023-03-04T14:57:21.487Z,21.95
2023-03-04T14:59:31.054Z,21.70
2023-03-04T15:01:34.332Z,22.00
2023-03-04T15:03:36.301Z,21.38
2023-03-04T15:05:37.968Z,20.60
2023-03-04T15:07:41.721Z,20.58
2023-03-04T15:09:50.756Z,19.90
2023-03-04T15:11:57.493Z,20.70
2023-03-04T15:14:00.070Z,21.70
2023-03-04T15:16:01.930Z,22.50
2023-03-04T15:18:04.840Z,19.88
2023-03-04T15:20:21.847Z,18.05
2023-03-04T15:22:23.580Z,19.13
2023-03-04T15:24:25.309Z,20.15
2023-03-04T15:26:28.439Z,19.52
2023-03-04T15:28:33.972Z,21.27
2023-03-04T15:30:36.092Z,21.55
2023-03-04T15:32:37.745Z,18.95
2023-03-04T15:34:39.468Z,19.55
2023-03-04T15:36:42.831Z,21.15
2023-03-04T15:38:47.073Z,22.95
2023-03-04T15:40:48.714Z,21.95
2023-03-04T15:42:51.923Z,21.23
2023-03-04T15:44:53.532Z,24.45
2023-03-04T15:46:55.081Z,22.05
2023-03-04T15:48:56.692Z,23.80
2023-03-04T15:51:00.878Z,23.08
2023-03-04T15:53:04.617Z,22.98
2023-03-04T15:55:07.698Z,24.40
2023-03-04T15:57:18.589Z,21.65
2023-03-04T15:59:21.559Z,23.17
2023-03-04T16:01:26.167Z,24.38
2023-03-04T16:03:28.891Z,24.88
2023-03-04T16:05:31.267Z,26.25
2023-03-04T16:07:33.993Z,26.00
2023-03-04T16:09:35.609Z,23.65
2023-03-04T16:11:40.187Z,23.10
2023-03-04T16:13:42.047Z,21.70
2023-03-04T16:15:45.450Z,23.80
2023-03-04T16:17:47.389Z,22.83
2023-03-04T16:19:48.986Z,23.30
2023-03-04T16:21:50.561Z,23.77
2023-03-04T16:23:53.133Z,21.95
2023-03-04T16:25:56.410Z,24.45
2023-03-04T16:27:58.385Z,24.30
2023-03-04T16:29:59.927Z,24.13
2023-03-04T16:32:02.945Z,24.33
2023-03-04T16:34:04.531Z,26.60
2023-03-04T16:36:14.378Z,26.60
2023-03-04T16:38:23.087Z,25.00
2023-03-04T16:40:27.112Z,26.00
2023-03-04T16:42:28.634Z,26.38
2023-03-04T16:44:30.171Z,25.35
2023-03-04T16:46:34.653Z,24.52
2023-03-04T16:48:37.910Z,26.52
2023-03-04T16:50:40.042Z,23.52
2023-03-04T16:52:44.558Z,27.42
2023-03-04T16:54:46.756Z,27.00
2023-03-04T16:56:48.354Z,26.33
2023-03-04T16:58:50.412Z,29.25
2023-03-04T17:00:51.939Z,30.40
2023-03-04T17:02:55.847Z,29.85
2023-03-04T17:04:58.965Z,31.25
2023-03-04T17:07:00.537Z,29.45
2023-03-04T17:09:02.132Z,29.50
2023-03-04T17:11:03.787Z,26.35
2023-03-04T17:13:05.816Z,25.23
2023-03-04T17:15:08.380Z,24.83
2023-03-04T17:17:10.288Z,23.08
2023-03-04T17:19:11.838Z,24.00
2023-03-04T17:21:18.407Z,27.08
2023-03-04T17:23:20.072Z,23.30
2023-03-04T17:25:21.742Z,24.27
2023-03-04T17:27:23.750Z,24.15
2023-03-04T17:29:26.002Z,24.42
2023-03-04T17:31:27.654Z,26.33
2023-03-04T17:33:31.287Z,25.85
2023-03-04T17:35:32.814Z,25.15
2023-03-04T17:37:36.615Z,27.02
2023-03-04T17:39:38.340Z,24.95
2023-03-04T17:41:39.999Z,26.75
2023-03-04T17:43:42.972Z,25.45
2023-03-04T17:45:44.581Z,25.33
2023-03-04T17:47:51.825Z,23.52
2023-03-04T17:49:53.415Z,23.33
2023-03-04T17:51:55.159Z,27.52
2023-03-04T17:53:58.228Z,24.58
2023-03-04T17:56:01.764Z,25.40
2023-03-04T17:58:03.382Z,26.52
2023-03-04T18:00:06.833Z,25.35
2023-03-04T18:02:13.578Z,25.90
2023-03-04T18:04:15.703Z,25.83
2023-03-04T18:06:17.446Z,24.50
2023-03-04T18:08:19.168Z,25.90
2023-03-04T18:10:22.104Z,25.90
2023-03-04T18:12:23.630Z,24.98
2023-03-04T18:14:25.347Z,25.40
2023-03-04T18:16:27.218Z,25.13
2023-03-04T18:18:28.836Z,25.25
2023-03-04T18:20:30.444Z,25.88
2023-03-04T18:22:32.067Z,26.50
2023-03-04T18:24:33.652Z,25.58
2023-03-04T18:26:36.703Z,25.30
2023-03-04T18:28:38.572Z,25.58
2023-03-04T18:30:40.272Z,26.70
2023-03-04T18:32:51.337Z,25.70
2023-03-04T18:34:53.667Z,24.90
2023-03-04T18:36:55.379Z,25.85
2023-03-04T18:38:57.056Z,25.92
2023-03-04T18:40:59.363Z,25.80
2023-03-04T18:43:02.247Z,26.90
2023-03-04T18:45:04.669Z,25.63
2023-03-04T18:47:06.859Z,25.15
2023-03-04T18:49:09.136Z,26.35
2023-03-04T18:51:10.688Z,25.92
2023-03-04T18:53:12.203Z,26.80
2023-03-04T18:55:14.193Z,25.42
2023-03-04T18:57:15.749Z,26.30
2023-03-04T18:59:22.001Z,25.08
2023-03-04T19:01:24.932Z,24.92
2023-03-04T19:03:26.597Z,25.77
2023-03-04T19:05:31.799Z,25.48
2023-03-04T19:07:33.520Z,27.52
2023-03-04T19:09:35.379Z,27.67
2023-03-04T19:11:37.364Z,27.52
2023-03-04T19:13:38.900Z,26.80
2023-03-04T19:15:41.786Z,28.20
2023-03-04T19:17:44.232Z,27.58
2023-03-04T19:19:45.808Z,29.23
2023-03-04T19:21:47.482Z,30.48
2023-03-04T19:23:51.923Z,26.88
2023-03-04T19:25:53.512Z,25.45
2023-03-04T19:27:55.107Z,30.00
2023-03-04T19:29:56.774Z,28.30
2023-03-04T19:31:59.823Z,26.10
2023-03-04T19:34:01.376Z,26.33
2023-03-04T19:36:04.428Z,26.10
2023-03-04T19:38:06.020Z,26.08
2023-03-04T19:40:08.760Z,27.23
2023-03-04T19:42:10.552Z,27.10
2023-03-04T19:44:12.130Z,27.55
2023-03-04T19:46:14.369Z,26.92
2023-03-04T19:48:17.444Z,27.15
2023-03-04T19:50:19.192Z,27.20
2023-03-04T19:52:20.915Z,28.13
2023-03-04T19:54:22.685Z,28.58
2023-03-04T19:56:24.506Z,28.40
2023-03-04T19:58:26.079Z,24.92
2023-03-04T20:00:27.819Z,24.30
2023-03-04T20:02:29.506Z,27.00
2023-03-04T20:04:32.617Z,26.13
2023-03-04T20:06:35.509Z,27.88
2023-03-04T20:08:38.448Z,25.27
2023-03-04T20:10:40.154Z,25.40
2023-03-04T20:12:41.775Z,25.83
2023-03-04T20:14:43.282Z,25.38
2023-03-04T20:16:44.896Z,24.02
2023-03-04T20:18:46.662Z,24.80
2023-03-04T20:20:49.547Z,25.35
2023-03-04T20:22:51.096Z,24.60
2023-03-04T20:24:52.778Z,23.58
2023-03-04T20:26:54.377Z,27.50
2023-03-04T20:28:55.899Z,26.80
2023-03-04T20:31:10.621Z,24.50
2023-03-04T20:33:12.187Z,23.83
2023-03-04T20:35:13.740Z,24.45
2023-03-04T20:37:16.936Z,22.60
2023-03-04T20:39:28.725Z,24.80
2023-03-04T20:41:31.983Z,23.67
2023-03-04T20:43:33.600Z,22.30
2023-03-04T20:45:35.886Z,23.88
2023-03-04T20:47:39.533Z,23.55
2023-03-04T20:49:41.337Z,24.80
2023-03-04T20:51:43.242Z,22.05
2023-03-04T20:53:46.463Z,23.23
2023-03-04T20:55:48.065Z,24.48
2023-03-04T20:57:49.646Z,24.48
2023-03-04T20:59:51.288Z,24.20
2023-03-04T21:01:53.638Z,24.73
2023-03-04T21:03:55.534Z,23.50
2023-03-04T21:06:02.706Z,24.02
2023-03-04T21:08:04.723Z,23.40
2023-03-04T21:10:08.765Z,24.88
2023-03-04T21:12:10.685Z,23.17
2023-03-04T21:14:14.056Z,23.83
2023-03-04T21:16:17.138Z,23.63
2023-03-04T21:18:19.134Z,24.35
2023-03-04T21:20:20.991Z,25.08
2023-03-04T21:22:22.674Z,25.92
2023-03-04T21:24:26.009Z,25.30
2023-03-04T21:26:29.177Z,23.13
2023-03-04T21:28:30.735Z,24.92
2023-03-04T21:30:32.261Z,23.65
2023-03-04T21:32:34.132Z,24.95
2023-03-04T21:34:39.567Z,21.95
2023-03-04T21:36:41.502Z,22.40
2023-03-04T21:38:44.527Z,25.10
2023-03-04T21:40:46.134Z,24.75
2023-03-04T21:42:49.045Z,24.33
2023-03-04T21:44:51.835Z,23.55
2023-03-04T21:46:53.979Z,23.85
2023-03-04T21:48:55.652Z,24.90
2023-03-04T21:51:01.689Z,25.00
2023-03-04T21:53:03.306Z,24.77
2023-03-04T21:55:05.448Z,23.13
2023-03-04T21:57:07.090Z,24.60
2023-03-04T21:59:11.887Z,24.30
2023-03-04T22:01:14.642Z,23.67
2023-03-04T22:03:16.453Z,24.05
2023-03-04T22:05:19.175Z,23.92
2023-03-04T22:07:20.781Z,24.83
2023-03-04T22:09:22.376Z,21.90
2023-03-04T22:11:24.304Z,24.25
2023-03-04T22:13:25.846Z,22.73
2023-03-04T22:15:28.937Z,24.13
2023-03-04T22:17:30.549Z,22.95
2023-03-04T22:19:32.767Z,22.52
2023-03-04T22:21:34.380Z,24.33
2023-03-04T22:23:36.212Z,22.70
2023-03-04T22:25:39.737Z,21.13
2023-03-04T22:27:41.373Z,22.70
2023-03-04T22:29:46.003Z,21.70
2023-03-04T22:31:48.983Z,23.55
2023-03-04T22:33:50.672Z,22.25
2023-03-04T22:35:52.751Z,21.15
2023-03-04T22:37:54.590Z,24.70
2023-03-04T22:39:57.136Z,23.00
2023-03-04T22:41:58.676Z,24.42
2023-03-04T22:44:00.338Z,23.08
2023-03-04T22:46:11.966Z,22.77
2023-03-04T22:48:14.945Z,23.33
2023-03-04T22:50:17.427Z,22.05
2023-03-04T22:52:19.124Z,23.42
2023-03-04T22:54:20.662Z,22.42
2023-03-04T22:56:22.427Z,22.73
2023-03-04T22:58:24.120Z,22.70
2023-03-04T23:00:27.842Z,23.83
2023-03-04T23:02:29.542Z,21.90
2023-03-04T23:04:32.742Z,21.83
2023-03-04T23:06:34.832Z,22.23
2023-03-04T23:08:38.432Z,24.52
2023-03-04T23:10:42.180Z,23.30
2023-03-04T23:12:43.901Z,22.27
2023-03-04T23:14:45.460Z,26.48
2023-03-04T23:16:47.145Z,23.65
2023-03-04T23:18:49.225Z,20.58
2023-03-04T23:20:52.119Z,22.80
2023-03-04T23:22:53.702Z,23.58
2023-03-04T23:24:55.267Z,21.42
2023-03-04T23:26:57.050Z,23.88
2023-03-04T23:29:00.625Z,20.70
2023-03-04T23:31:04.259Z,21.08
2023-03-04T23:33:07.079Z,19.58
2023-03-04T23:35:09.296Z,21.80
2023-03-04T23:37:12.269Z,22.17
2023-03-04T23:39:13.838Z,22.77
2023-03-04T23:41:17.854Z,22.75
2023-03-04T23:43:19.381Z,22.25
2023-03-04T23:45:20.951Z,24.52
2023-03-04T23:47:22.564Z,22.27
2023-03-04T23:49:24.322Z,20.92
2023-03-04T23:51:28.255Z,20.25
2023-03-04T23:53:31.211Z,21.63
2023-03-04T23:55:32.694Z,23.38
2023-03-04T23:57:34.220Z,20.95
2023-03-04T23:59:37.651Z,21.52
